sensor_id;sensor_type;location;lat;lon;timestamp;pressure;altitude;pressure_sealevel;temperature;humidity
50349;BME280;36250;48.740;22.174;2024-01-30T00:01:37;102969.31;;;3.00;58.61
50349;BME280;36250;48.740;22.174;2024-01-30T00:04:02;102977.53;;;2.98;58.21
50349;BME280;36250;48.740;22.174;2024-01-30T00:06:28;102982.16;;;2.96;57.76
50349;BME280;36250;48.740;22.174;2024-01-30T00:08:53;102972.91;;;2.89;57.89
50349;BME280;36250;48.740;22.174;2024-01-30T00:11:18;102989.47;;;2.85;58.44
50349;BME280;36250;48.740;22.174;2024-01-30T00:13:44;102986.31;;;2.80;57.98
50349;BME280;36250;48.740;22.174;2024-01-30T00:16:20;102986.00;;;2.73;58.54
50349;BME280;36250;48.740;22.174;2024-01-30T00:18:45;102982.13;;;2.66;57.92
50349;BME280;36250;48.740;22.174;2024-01-30T00:21:11;102983.34;;;2.62;58.66
50349;BME280;36250;48.740;22.174;2024-01-30T00:23:36;102985.56;;;2.57;58.13
50349;BME280;36250;48.740;22.174;2024-01-30T00:26:01;102980.75;;;2.51;59.07
50349;BME280;36250;48.740;22.174;2024-01-30T00:28:27;102980.03;;;2.49;59.72
50349;BME280;36250;48.740;22.174;2024-01-30T00:30:52;102981.00;;;2.48;59.26
50349;BME280;36250;48.740;22.174;2024-01-30T00:33:18;102975.03;;;2.44;58.79
50349;BME280;36250;48.740;22.174;2024-01-30T00:35:43;102977.97;;;2.41;58.68
50349;BME280;36250;48.740;22.174;2024-01-30T00:38:08;102982.75;;;2.38;58.56
50349;BME280;36250;48.740;22.174;2024-01-30T00:40:34;102985.69;;;2.35;59.31
50349;BME280;36250;48.740;22.174;2024-01-30T00:42:59;102979.88;;;2.30;59.66
50349;BME280;36250;48.740;22.174;2024-01-30T00:45:25;102983.53;;;2.29;58.79
50349;BME280;36250;48.740;22.174;2024-01-30T00:47:50;102981.22;;;2.24;59.77
50349;BME280;36250;48.740;22.174;2024-01-30T00:50:15;102975.25;;;2.21;58.94
50349;BME280;36250;48.740;22.174;2024-01-30T00:52:41;102980.13;;;2.16;59.47
50349;BME280;36250;48.740;22.174;2024-01-30T00:55:07;102993.16;;;1.99;60.29
50349;BME280;36250;48.740;22.174;2024-01-30T00:57:32;102990.59;;;1.98;59.95
50349;BME280;36250;48.740;22.174;2024-01-30T00:59:58;102989.22;;;2.04;59.84
50349;BME280;36250;48.740;22.174;2024-01-30T01:02:23;102989.13;;;2.05;60.22
50349;BME280;36250;48.740;22.174;2024-01-30T01:04:48;102992.63;;;2.06;59.82
50349;BME280;36250;48.740;22.174;2024-01-30T01:07:14;102996.19;;;2.06;59.79
50349;BME280;36250;48.740;22.174;2024-01-30T01:09:39;102994.50;;;2.05;60.21
50349;BME280;36250;48.740;22.174;2024-01-30T01:12:05;102997.16;;;2.05;60.55
50349;BME280;36250;48.740;22.174;2024-01-30T01:14:30;102990.94;;;2.05;60.34
50349;BME280;36250;48.740;22.174;2024-01-30T01:16:56;102987.53;;;2.03;60.40
50349;BME280;36250;48.740;22.174;2024-01-30T01:19:21;102991.91;;;2.04;60.43
50349;BME280;36250;48.740;22.174;2024-01-30T01:21:47;102998.38;;;2.01;59.46
50349;BME280;36250;48.740;22.174;2024-01-30T01:24:12;102990.22;;;2.03;59.99
50349;BME280;36250;48.740;22.174;2024-01-30T01:26:37;102993.88;;;2.02;60.03
50349;BME280;36250;48.740;22.174;2024-01-30T01:29:03;102986.78;;;2.00;60.21
50349;BME280;36250;48.740;22.174;2024-01-30T01:31:35;102983.38;;;1.98;60.35
50349;BME280;36250;48.740;22.174;2024-01-30T01:34:05;102984.22;;;1.99;59.90
50349;BME280;36250;48.740;22.174;2024-01-30T01:36:30;102989.59;;;1.99;59.35
50349;BME280;36250;48.740;22.174;2024-01-30T01:38:55;102988.75;;;1.98;59.64
50349;BME280;36250;48.740;22.174;2024-01-30T01:41:21;102983.25;;;2.00;59.80
50349;BME280;36250;48.740;22.174;2024-01-30T01:43:46;102990.59;;;1.98;60.14
50349;BME280;36250;48.740;22.174;2024-01-30T01:46:12;102983.25;;;2.00;59.80
50349;BME280;36250;48.740;22.174;2024-01-30T01:48:37;102977.41;;;1.95;59.80
50349;BME280;36250;48.740;22.174;2024-01-30T01:51:05;102981.06;;;1.94;59.36
50349;BME280;36250;48.740;22.174;2024-01-30T01:53:31;102983.66;;;1.95;59.83
50349;BME280;36250;48.740;22.174;2024-01-30T01:55:56;102982.78;;;1.95;59.66
50349;BME280;36250;48.740;22.174;2024-01-30T01:58:22;102979.09;;;1.96;59.55
50349;BME280;36250;48.740;22.174;2024-01-30T02:00:49;102978.38;;;1.94;59.22
50349;BME280;36250;48.740;22.174;2024-01-30T02:03:17;102974.25;;;1.90;59.86
50349;BME280;36250;48.740;22.174;2024-01-30T02:05:43;102979.00;;;1.86;59.60
50349;BME280;36250;48.740;22.174;2024-01-30T02:08:09;102975.59;;;1.84;59.84
50349;BME280;36250;48.740;22.174;2024-01-30T02:10:34;102979.25;;;1.83;60.07
50349;BME280;36250;48.740;22.174;2024-01-30T02:12:59;102976.94;;;1.79;59.90
50349;BME280;36250;48.740;22.174;2024-01-30T02:15:25;102974.66;;;1.74;60.23
50349;BME280;36250;48.740;22.174;2024-01-30T02:17:50;102980.88;;;1.75;60.23
50349;BME280;36250;48.740;22.174;2024-01-30T02:20:15;102978.06;;;1.76;60.64
50349;BME280;36250;48.740;22.174;2024-01-30T02:22:41;102981.50;;;1.78;60.25
50349;BME280;36250;48.740;22.174;2024-01-30T02:25:08;102975.75;;;1.83;60.35
50349;BME280;36250;48.740;22.174;2024-01-30T02:27:33;102979.25;;;1.83;60.10
50349;BME280;36250;48.740;22.174;2024-01-30T02:29:58;102980.72;;;1.87;60.74
50349;BME280;36250;48.740;22.174;2024-01-30T02:32:24;102982.41;;;1.88;60.24
50349;BME280;36250;48.740;22.174;2024-01-30T02:34:49;102969.16;;;1.76;60.49
50349;BME280;36250;48.740;22.174;2024-01-30T02:37:14;102977.22;;;1.76;61.29
50349;BME280;36250;48.740;22.174;2024-01-30T02:39:40;102980.50;;;1.79;60.61
50349;BME280;36250;48.740;22.174;2024-01-30T02:42:05;102982.69;;;1.85;61.46
50349;BME280;36250;48.740;22.174;2024-01-30T02:44:30;102974.13;;;1.91;60.60
50349;BME280;36250;48.740;22.174;2024-01-30T02:46:56;102978.44;;;1.83;60.76
50349;BME280;36250;48.740;22.174;2024-01-30T02:49:21;102980.97;;;1.84;60.89
50349;BME280;36250;48.740;22.174;2024-01-30T02:51:47;102984.38;;;1.86;61.11
50349;BME280;36250;48.740;22.174;2024-01-30T02:54:12;102976.72;;;1.82;60.85
50349;BME280;36250;48.740;22.174;2024-01-30T02:56:37;102969.66;;;1.81;61.34
50349;BME280;36250;48.740;22.174;2024-01-30T02:59:03;102973.63;;;1.86;60.56
50349;BME280;36250;48.740;22.174;2024-01-30T03:01:28;102983.94;;;1.70;61.35
50349;BME280;36250;48.740;22.174;2024-01-30T03:03:53;102974.69;;;1.63;61.70
50349;BME280;36250;48.740;22.174;2024-01-30T03:06:19;102988.97;;;1.53;61.62
50349;BME280;36250;48.740;22.174;2024-01-30T03:08:45;102983.97;;;1.48;61.64
50349;BME280;36250;48.740;22.174;2024-01-30T03:11:10;102980.31;;;1.49;61.51
50349;BME280;36250;48.740;22.174;2024-01-30T03:13:36;102984.09;;;1.47;62.22
50349;BME280;36250;48.740;22.174;2024-01-30T03:16:01;102978.84;;;1.45;62.09
50349;BME280;36250;48.740;22.174;2024-01-30T03:18:26;102986.88;;;1.45;62.54
50349;BME280;36250;48.740;22.174;2024-01-30T03:20:52;102971.28;;;1.50;61.85
50349;BME280;36250;48.740;22.174;2024-01-30T03:23:17;102966.25;;;1.57;62.44
50349;BME280;36250;48.740;22.174;2024-01-30T03:25:43;102968.34;;;1.53;61.83
50349;BME280;36250;48.740;22.174;2024-01-30T03:28:08;102968.84;;;1.58;61.55
50349;BME280;36250;48.740;22.174;2024-01-30T03:30:34;102964.66;;;1.65;62.14
50349;BME280;36250;48.740;22.174;2024-01-30T03:32:59;102963.31;;;1.60;62.28
50349;BME280;36250;48.740;22.174;2024-01-30T03:35:25;102962.22;;;1.62;61.45
50349;BME280;36250;48.740;22.174;2024-01-30T03:37:50;102967.34;;;1.65;61.49
50349;BME280;36250;48.740;22.174;2024-01-30T03:40:15;102958.09;;;1.58;61.86
50349;BME280;36250;48.740;22.174;2024-01-30T03:42:41;102962.22;;;1.62;61.42
50349;BME280;36250;48.740;22.174;2024-01-30T03:45:07;102967.09;;;1.68;61.84
50349;BME280;36250;48.740;22.174;2024-01-30T03:47:32;102965.00;;;1.72;61.68
50349;BME280;36250;48.740;22.174;2024-01-30T03:49:57;102957.69;;;1.74;60.58
50349;BME280;36250;48.740;22.174;2024-01-30T03:52:23;102958.53;;;1.74;60.45
50349;BME280;36250;48.740;22.174;2024-01-30T03:54:48;102957.44;;;1.77;60.44
50349;BME280;36250;48.740;22.174;2024-01-30T03:57:14;102957.44;;;1.77;60.80
50349;BME280;36250;48.740;22.174;2024-01-30T03:59:42;102960.00;;;1.78;60.95
50349;BME280;36250;48.740;22.174;2024-01-30T04:02:07;102954.66;;;1.78;60.86
50349;BME280;36250;48.740;22.174;2024-01-30T04:04:32;102954.38;;;1.81;60.90
50349;BME280;36250;48.740;22.174;2024-01-30T04:06:58;102954.38;;;1.81;60.73
50349;BME280;36250;48.740;22.174;2024-01-30T04:09:23;102945.34;;;1.82;60.62
50349;BME280;36250;48.740;22.174;2024-01-30T04:11:49;102950.72;;;1.82;60.43
50349;BME280;36250;48.740;22.174;2024-01-30T04:14:14;102955.38;;;1.80;60.66
50349;BME280;36250;48.740;22.174;2024-01-30T04:16:40;102957.19;;;1.80;60.05
50349;BME280;36250;48.740;22.174;2024-01-30T04:19:05;102954.66;;;1.78;59.74
50349;BME280;36250;48.740;22.174;2024-01-30T04:21:30;102958.16;;;1.79;60.40
50349;BME280;36250;48.740;22.174;2024-01-30T04:23:56;102958.28;;;1.77;59.67
50349;BME280;36250;48.740;22.174;2024-01-30T04:26:21;102960.50;;;1.72;59.88
50349;BME280;36250;48.740;22.174;2024-01-30T04:28:47;102961.47;;;1.71;59.71
50349;BME280;36250;48.740;22.174;2024-01-30T04:31:12;102960.50;;;1.72;59.93
50349;BME280;36250;48.740;22.174;2024-01-30T04:33:37;102953.69;;;1.68;60.07
50349;BME280;36250;48.740;22.174;2024-01-30T04:36:03;102964.03;;;1.62;60.39
50349;BME280;36250;48.740;22.174;2024-01-30T04:38:30;102961.50;;;1.60;61.09
50349;BME280;36250;48.740;22.174;2024-01-30T04:40:55;102961.03;;;1.55;61.84
50349;BME280;36250;48.740;22.174;2024-01-30T04:43:20;102968.84;;;1.58;61.57
50349;BME280;36250;48.740;22.174;2024-01-30T04:45:46;102969.56;;;1.60;62.18
50349;BME280;36250;48.740;22.174;2024-01-30T04:48:12;102968.69;;;1.60;61.53
50349;BME280;36250;48.740;22.174;2024-01-30T04:50:37;102970.78;;;1.56;61.77
50349;BME280;36250;48.740;22.174;2024-01-30T04:53:02;102971.28;;;1.50;62.00
50349;BME280;36250;48.740;22.174;2024-01-30T04:55:28;102978.47;;;1.39;62.38
50349;BME280;36250;48.740;22.174;2024-01-30T04:57:53;102979.59;;;1.36;62.29
50349;BME280;36250;48.740;22.174;2024-01-30T05:00:19;102981.28;;;1.37;61.52
50349;BME280;36250;48.740;22.174;2024-01-30T05:02:44;102983.38;;;1.33;62.37
50349;BME280;36250;48.740;22.174;2024-01-30T05:05:09;102985.41;;;1.30;62.47
50349;BME280;36250;48.740;22.174;2024-01-30T05:07:36;102985.56;;;1.28;62.37
50349;BME280;36250;48.740;22.174;2024-01-30T05:10:01;102984.44;;;1.20;62.61
50349;BME280;36250;48.740;22.174;2024-01-30T05:12:27;102984.72;;;1.17;62.40
50349;BME280;36250;48.740;22.174;2024-01-30T05:14:52;102978.97;;;1.21;62.26
50349;BME280;36250;48.740;22.174;2024-01-30T05:17:17;102982.25;;;1.25;62.08
50349;BME280;36250;48.740;22.174;2024-01-30T05:19:43;102989.34;;;1.26;61.43
50349;BME280;36250;48.740;22.174;2024-01-30T05:22:08;102996.41;;;1.27;61.62
50349;BME280;36250;48.740;22.174;2024-01-30T05:24:35;102988.38;;;1.27;62.11
50349;BME280;36250;48.740;22.174;2024-01-30T05:27:00;102990.19;;;1.26;62.28
50349;BME280;36250;48.740;22.174;2024-01-30T05:29:27;102994.84;;;1.24;61.94
50349;BME280;36250;48.740;22.174;2024-01-30T05:31:52;102998.63;;;1.22;62.08
50349;BME280;36250;48.740;22.174;2024-01-30T05:34:17;102993.25;;;1.22;61.30
50349;BME280;36250;48.740;22.174;2024-01-30T05:36:42;102993.97;;;1.24;61.42
50349;BME280;36250;48.740;22.174;2024-01-30T05:39:08;102991.75;;;1.18;61.90
50349;BME280;36250;48.740;22.174;2024-01-30T05:41:33;102991.41;;;1.11;62.47
50349;BME280;36250;48.740;22.174;2024-01-30T05:43:58;102987.38;;;1.06;62.71
50349;BME280;36250;48.740;22.174;2024-01-30T05:46:24;102987.84;;;1.11;62.08
50349;BME280;36250;48.740;22.174;2024-01-30T05:48:49;102989.81;;;1.09;61.85
50349;BME280;36250;48.740;22.174;2024-01-30T05:51:14;102986.91;;;1.12;61.89
50349;BME280;36250;48.740;22.174;2024-01-30T05:53:40;102989.44;;;1.13;62.14
50349;BME280;36250;48.740;22.174;2024-01-30T05:56:06;102997.63;;;1.12;61.76
50349;BME280;36250;48.740;22.174;2024-01-30T05:58:31;103004.94;;;1.10;61.25
50349;BME280;36250;48.740;22.174;2024-01-30T06:00:57;102994.44;;;1.07;61.24
50349;BME280;36250;48.740;22.174;2024-01-30T06:03:23;102997.22;;;1.05;61.50
50349;BME280;36250;48.740;22.174;2024-01-30T06:05:48;103000.78;;;1.06;61.62
50349;BME280;36250;48.740;22.174;2024-01-30T06:08:13;103002.59;;;1.05;61.18
50349;BME280;36250;48.740;22.174;2024-01-30T06:10:39;103009.06;;;1.03;61.13
50349;BME280;36250;48.740;22.174;2024-01-30T06:13:04;103011.63;;;1.04;61.48
50349;BME280;36250;48.740;22.174;2024-01-30T06:15:29;103008.94;;;1.04;61.54
50349;BME280;36250;48.740;22.174;2024-01-30T06:17:55;103011.28;;;1.09;61.35
50349;BME280;36250;48.740;22.174;2024-01-30T06:20:21;103010.19;;;1.11;62.01
50349;BME280;36250;48.740;22.174;2024-01-30T06:22:46;103012.25;;;1.19;61.08
50349;BME280;36250;48.740;22.174;2024-01-30T06:25:11;103012.13;;;1.20;61.60
50349;BME280;36250;48.740;22.174;2024-01-30T06:27:37;103015.31;;;1.25;61.51
50349;BME280;36250;48.740;22.174;2024-01-30T06:30:03;103022.88;;;1.31;61.20
50349;BME280;36250;48.740;22.174;2024-01-30T06:32:29;103016.28;;;1.36;61.18
50349;BME280;36250;48.740;22.174;2024-01-30T06:34:59;103015.91;;;1.40;60.58
50349;BME280;36250;48.740;22.174;2024-01-30T06:37:24;103016.16;;;1.48;60.76
50349;BME280;36250;48.740;22.174;2024-01-30T06:39:50;103014.84;;;1.54;60.31
50349;BME280;36250;48.740;22.174;2024-01-30T06:42:15;103026.78;;;1.61;60.95
50349;BME280;36250;48.740;22.174;2024-01-30T06:44:41;103017.41;;;1.66;60.41
50349;BME280;36250;48.740;22.174;2024-01-30T06:47:06;103013.97;;;1.75;60.65
50349;BME280;36250;48.740;22.174;2024-01-30T06:49:31;103015.31;;;1.81;60.08
50349;BME280;36250;48.740;22.174;2024-01-30T06:51:57;103019.06;;;1.89;60.48
50349;BME280;36250;48.740;22.174;2024-01-30T06:54:22;103021.69;;;2.00;60.28
50349;BME280;36250;48.740;22.174;2024-01-30T06:56:47;103018.53;;;2.07;59.81
50349;BME280;36250;48.740;22.174;2024-01-30T06:59:13;103011.66;;;2.14;59.18
50349;BME280;36250;48.740;22.174;2024-01-30T07:01:38;103004.56;;;2.24;59.85
50349;BME280;36250;48.740;22.174;2024-01-30T07:04:03;103009.16;;;2.33;59.11
50349;BME280;36250;48.740;22.174;2024-01-30T07:06:29;103005.56;;;2.43;59.65
50349;BME280;36250;48.740;22.174;2024-01-30T07:08:54;103009.06;;;2.55;59.24
50349;BME280;36250;48.740;22.174;2024-01-30T07:11:20;103007.69;;;2.60;59.37
50349;BME280;36250;48.740;22.174;2024-01-30T07:13:47;103013.69;;;2.64;58.99
50349;BME280;36250;48.740;22.174;2024-01-30T07:16:14;103018.13;;;2.75;59.88
50349;BME280;36250;48.740;22.174;2024-01-30T07:18:39;103009.16;;;2.85;59.01
50349;BME280;36250;48.740;22.174;2024-01-30T07:21:05;103013.81;;;2.83;58.86
50349;BME280;36250;48.740;22.174;2024-01-30T07:23:30;103023.84;;;2.81;59.23
50349;BME280;36250;48.740;22.174;2024-01-30T07:25:55;103014.38;;;2.87;58.58
50349;BME280;36250;48.740;22.174;2024-01-30T07:28:21;103016.88;;;2.99;59.32
50349;BME280;36250;48.740;22.174;2024-01-30T07:30:47;103018.19;;;3.05;59.55
50349;BME280;36250;48.740;22.174;2024-01-30T07:33:13;103023.06;;;3.20;58.79
50349;BME280;36250;48.740;22.174;2024-01-30T07:35:39;103015.81;;;3.32;58.86
50349;BME280;36250;48.740;22.174;2024-01-30T07:38:04;103025.16;;;3.38;58.43
50349;BME280;36250;48.740;22.174;2024-01-30T07:40:29;103026.88;;;3.39;59.11
50349;BME280;36250;48.740;22.174;2024-01-30T07:42:55;103023.16;;;3.30;59.46
50349;BME280;36250;48.740;22.174;2024-01-30T07:45:20;103026.22;;;3.25;60.09
50349;BME280;36250;48.740;22.174;2024-01-30T07:47:49;103028.75;;;3.17;59.72
50349;BME280;36250;48.740;22.174;2024-01-30T07:50:15;103023.06;;;3.20;59.96
50349;BME280;36250;48.740;22.174;2024-01-30T07:52:40;103018.66;;;3.40;60.06
50349;BME280;36250;48.740;22.174;2024-01-30T07:55:05;103021.22;;;3.42;59.39
50349;BME280;36250;48.740;22.174;2024-01-30T07:57:33;103028.91;;;3.46;60.38
50349;BME280;36250;48.740;22.174;2024-01-30T07:59:59;103028.94;;;3.56;59.82
50349;BME280;36250;48.740;22.174;2024-01-30T08:02:24;103028.06;;;3.55;59.40
50349;BME280;36250;48.740;22.174;2024-01-30T08:04:50;103032.34;;;3.58;60.10
50349;BME280;36250;48.740;22.174;2024-01-30T08:07:15;103028.56;;;3.70;60.68
50349;BME280;36250;48.740;22.174;2024-01-30T08:09:40;103036.75;;;3.59;60.20
50349;BME280;36250;48.740;22.174;2024-01-30T08:12:06;103031.78;;;3.54;60.26
50349;BME280;36250;48.740;22.174;2024-01-30T08:14:31;103041.56;;;3.65;60.31
50349;BME280;36250;48.740;22.174;2024-01-30T08:16:57;103038.34;;;3.71;59.77
50349;BME280;36250;48.740;22.174;2024-01-30T08:19:22;103038.09;;;3.74;59.96
50349;BME280;36250;48.740;22.174;2024-01-30T08:21:47;103050.81;;;3.72;60.25
50349;BME280;36250;48.740;22.174;2024-01-30T08:24:13;103043.81;;;3.90;60.62
50349;BME280;36250;48.740;22.174;2024-01-30T08:26:38;103042.94;;;3.89;60.78
50349;BME280;36250;48.740;22.174;2024-01-30T08:29:03;103042.28;;;4.07;59.76
50349;BME280;36250;48.740;22.174;2024-01-30T08:31:29;103045.84;;;4.17;58.61
50349;BME280;36250;48.740;22.174;2024-01-30T08:33:54;103047.84;;;4.24;59.61
50349;BME280;36250;48.740;22.174;2024-01-30T08:36:20;103042.72;;;4.21;58.82
50349;BME280;36250;48.740;22.174;2024-01-30T08:38:45;103044.47;;;4.32;58.87
50349;BME280;36250;48.740;22.174;2024-01-30T08:41:11;103042.91;;;4.39;58.46
50349;BME280;36250;48.740;22.174;2024-01-30T08:43:36;103041.63;;;4.52;58.13
50349;BME280;36250;48.740;22.174;2024-01-30T08:46:02;103042.19;;;4.65;57.81
50349;BME280;36250;48.740;22.174;2024-01-30T08:48:27;103040.53;;;4.64;58.00
50349;BME280;36250;48.740;22.174;2024-01-30T08:50:53;103039.50;;;4.65;57.52
50349;BME280;36250;48.740;22.174;2024-01-30T08:53:18;103036.09;;;4.73;58.21
50349;BME280;36250;48.740;22.174;2024-01-30T08:55:44;103033.66;;;4.80;58.44
50349;BME280;36250;48.740;22.174;2024-01-30T08:58:10;103029.84;;;4.73;58.44
50349;BME280;36250;48.740;22.174;2024-01-30T09:00:35;103032.81;;;4.98;58.44
50349;BME280;36250;48.740;22.174;2024-01-30T09:03:00;103020.28;;;5.07;56.98
50349;BME280;36250;48.740;22.174;2024-01-30T09:05:26;103028.78;;;5.12;57.26
50349;BME280;36250;48.740;22.174;2024-01-30T09:07:51;103027.09;;;5.20;57.30
50349;BME280;36250;48.740;22.174;2024-01-30T09:10:16;103018.97;;;5.30;57.34
50349;BME280;36250;48.740;22.174;2024-01-30T09:12:42;103012.09;;;5.45;56.19
50349;BME280;36250;48.740;22.174;2024-01-30T09:15:07;103011.47;;;5.51;55.94
50349;BME280;36250;48.740;22.174;2024-01-30T09:17:33;103009.75;;;5.50;55.16
50349;BME280;36250;48.740;22.174;2024-01-30T09:19:58;103010.28;;;5.63;55.47
50349;BME280;36250;48.740;22.174;2024-01-30T09:22:24;103009.47;;;5.80;55.07
50349;BME280;36250;48.740;22.174;2024-01-30T09:24:49;102996.41;;;5.85;54.50
50349;BME280;36250;48.740;22.174;2024-01-30T09:27:15;102998.59;;;6.00;54.53
50349;BME280;36250;48.740;22.174;2024-01-30T09:29:40;103003.84;;;6.01;53.77
50349;BME280;36250;48.740;22.174;2024-01-30T09:32:06;102997.19;;;5.95;53.96
50349;BME280;36250;48.740;22.174;2024-01-30T09:34:32;102994.34;;;5.97;54.24
50349;BME280;36250;48.740;22.174;2024-01-30T09:36:58;102993.66;;;6.13;53.58
50349;BME280;36250;48.740;22.174;2024-01-30T09:39:24;102989.72;;;6.25;54.06
50349;BME280;36250;48.740;22.174;2024-01-30T09:42:01;102993.44;;;6.41;52.99
50349;BME280;36250;48.740;22.174;2024-01-30T09:44:29;102983.88;;;6.47;53.37
50349;BME280;36250;48.740;22.174;2024-01-30T09:46:55;102983.47;;;6.42;53.02
50349;BME280;36250;48.740;22.174;2024-01-30T09:49:24;102978.38;;;6.56;53.03
50349;BME280;36250;48.740;22.174;2024-01-30T09:51:50;102979.91;;;6.59;52.80
50349;BME280;36250;48.740;22.174;2024-01-30T09:54:19;102982.69;;;6.49;52.72
50349;BME280;36250;48.740;22.174;2024-01-30T09:56:45;102976.94;;;6.70;53.19
50349;BME280;36250;48.740;22.174;2024-01-30T09:59:10;102974.59;;;6.93;52.33
50349;BME280;36250;48.740;22.174;2024-01-30T10:01:36;102972.06;;;6.99;52.24
50349;BME280;36250;48.740;22.174;2024-01-30T10:04:01;102966.34;;;7.02;51.68
50349;BME280;36250;48.740;22.174;2024-01-30T10:06:27;102962.00;;;7.09;52.09
50349;BME280;36250;48.740;22.174;2024-01-30T10:08:53;102964.75;;;7.17;51.64
50349;BME280;36250;48.740;22.174;2024-01-30T10:11:18;102958.91;;;7.30;51.87
50349;BME280;36250;48.740;22.174;2024-01-30T10:13:43;102957.44;;;7.44;51.51
50349;BME280;36250;48.740;22.174;2024-01-30T10:16:09;102953.78;;;7.53;51.45
50349;BME280;36250;48.740;22.174;2024-01-30T10:18:34;102955.44;;;7.54;51.35
50349;BME280;36250;48.740;22.174;2024-01-30T10:20:59;102944.94;;;7.51;51.06
50349;BME280;36250;48.740;22.174;2024-01-30T10:23:25;102940.75;;;7.64;50.42
50349;BME280;36250;48.740;22.174;2024-01-30T10:25:51;102946.22;;;7.80;49.82
50349;BME280;36250;48.740;22.174;2024-01-30T10:28:17;102940.00;;;7.96;49.54
50349;BME280;36250;48.740;22.174;2024-01-30T10:30:43;102940.72;;;8.06;49.60
50349;BME280;36250;48.740;22.174;2024-01-30T10:33:08;102938.69;;;8.16;49.28
50349;BME280;36250;48.740;22.174;2024-01-30T10:35:33;102939.38;;;8.18;49.05
50349;BME280;36250;48.740;22.174;2024-01-30T10:37:59;102931.56;;;8.15;48.37
50349;BME280;36250;48.740;22.174;2024-01-30T10:40:27;102930.56;;;8.16;48.87
50349;BME280;36250;48.740;22.174;2024-01-30T10:42:55;102939.06;;;8.29;48.99
50349;BME280;36250;48.740;22.174;2024-01-30T10:45:21;102932.97;;;8.35;48.81
50349;BME280;36250;48.740;22.174;2024-01-30T10:47:52;102939.41;;;8.42;48.30
50349;BME280;36250;48.740;22.174;2024-01-30T10:50:18;102925.16;;;8.56;48.73
50349;BME280;36250;48.740;22.174;2024-01-30T10:52:44;102923.16;;;8.50;47.97
50349;BME280;36250;48.740;22.174;2024-01-30T10:55:10;102921.94;;;8.53;47.71
50349;BME280;36250;48.740;22.174;2024-01-30T10:57:36;102918.91;;;8.48;47.86
50349;BME280;36250;48.740;22.174;2024-01-30T11:00:07;102912.78;;;8.62;47.59
50349;BME280;36250;48.740;22.174;2024-01-30T11:02:40;102917.34;;;8.70;47.98
50349;BME280;36250;48.740;22.174;2024-01-30T11:05:06;102907.50;;;8.77;47.78
50349;BME280;36250;48.740;22.174;2024-01-30T11:07:32;102901.53;;;8.81;47.44
50349;BME280;36250;48.740;22.174;2024-01-30T11:12:24;102913.44;;;8.80;47.53
50349;BME280;36250;48.740;22.174;2024-01-30T11:15:37;102904.41;;;8.88;47.15
50349;BME280;36250;48.740;22.174;2024-01-30T11:17:49;102900.34;;;8.92;47.59
50349;BME280;36250;48.740;22.174;2024-01-30T11:20:20;102902.53;;;9.04;47.37
50349;BME280;36250;48.740;22.174;2024-01-30T11:22:47;102901.34;;;8.99;47.55
50349;BME280;36250;48.740;22.174;2024-01-30T11:25:14;102906.78;;;8.99;47.41
50349;BME280;36250;48.740;22.174;2024-01-30T11:27:41;102896.56;;;9.01;47.45
50349;BME280;36250;48.740;22.174;2024-01-30T11:30:07;102900.28;;;9.08;46.68
50349;BME280;36250;48.740;22.174;2024-01-30T11:32:33;102899.44;;;9.07;46.86
50349;BME280;36250;48.740;22.174;2024-01-30T11:34:58;102894.44;;;9.27;46.72
50349;BME280;36250;48.740;22.174;2024-01-30T11:37:25;102882.53;;;9.36;46.66
50349;BME280;36250;48.740;22.174;2024-01-30T11:39:54;102881.00;;;9.34;46.35
50349;BME280;36250;48.740;22.174;2024-01-30T11:42:22;102876.41;;;9.34;46.41
50349;BME280;36250;48.740;22.174;2024-01-30T11:44:49;102881.81;;;9.42;46.27
50349;BME280;36250;48.740;22.174;2024-01-30T11:47:16;102883.84;;;9.40;46.07
50349;BME280;36250;48.740;22.174;2024-01-30T11:49:42;102873.84;;;9.41;46.08
50349;BME280;36250;48.740;22.174;2024-01-30T11:52:09;102883.94;;;9.55;46.17
50349;BME280;36250;48.740;22.174;2024-01-30T11:54:34;102870.47;;;9.61;45.99
50349;BME280;36250;48.740;22.174;2024-01-30T11:56:59;102873.91;;;9.63;46.34
50349;BME280;36250;48.740;22.174;2024-01-30T11:59:25;102875.44;;;9.58;45.51
50349;BME280;36250;48.740;22.174;2024-01-30T12:01:51;102869.78;;;9.67;46.42
50349;BME280;36250;48.740;22.174;2024-01-30T12:04:17;102868.06;;;9.66;45.79
50349;BME280;36250;48.740;22.174;2024-01-30T12:06:42;102866.41;;;9.65;46.47
50349;BME280;36250;48.740;22.174;2024-01-30T12:09:09;102862.31;;;9.61;46.26
50349;BME280;36250;48.740;22.174;2024-01-30T12:11:47;102866.53;;;9.72;46.23
50349;BME280;36250;48.740;22.174;2024-01-30T12:14:12;102851.09;;;9.64;46.10
50349;BME280;36250;48.740;22.174;2024-01-30T12:16:38;102854.97;;;9.70;46.02
50349;BME280;36250;48.740;22.174;2024-01-30T12:19:04;102850.69;;;9.75;45.58
50349;BME280;36250;48.740;22.174;2024-01-30T12:21:29;102852.22;;;9.78;45.64
50349;BME280;36250;48.740;22.174;2024-01-30T12:23:56;102845.47;;;9.88;46.14
50349;BME280;36250;48.740;22.174;2024-01-30T12:26:23;102844.13;;;9.93;45.80
50349;BME280;36250;48.740;22.174;2024-01-30T12:28:50;102842.53;;;9.98;45.66
50349;BME280;36250;48.740;22.174;2024-01-30T12:31:16;102850.81;;;10.05;45.91
50349;BME280;36250;48.740;22.174;2024-01-30T12:33:41;102842.25;;;10.16;45.63
50349;BME280;36250;48.740;22.174;2024-01-30T12:36:07;102836.38;;;10.27;45.22
50349;BME280;36250;48.740;22.174;2024-01-30T12:38:32;102833.38;;;10.22;44.88
50349;BME280;36250;48.740;22.174;2024-01-30T12:40:58;102838.31;;;10.55;43.90
50349;BME280;36250;48.740;22.174;2024-01-30T12:43:25;102831.66;;;13.27;39.57
50349;BME280;36250;48.740;22.174;2024-01-30T12:45:52;102823.50;;;15.74;35.23